createdAt,value
2018-05-23T00:00:09.916Z,6.87
2018-05-23T00:02:38.672Z,5.67
2018-05-23T00:05:06.992Z,5.90
2018-05-23T00:07:35.339Z,5.70
2018-05-23T00:10:04.433Z,6.17
2018-05-23T00:12:32.774Z,6.57
2018-05-23T00:15:01.109Z,6.50
2018-05-23T00:17:29.416Z,6.63
2018-05-23T00:19:57.756Z,6.30
2018-05-23T00:22:26.837Z,6.33
2018-05-23T00:24:55.943Z,6.10
2018-05-23T00:27:25.016Z,6.20
2018-05-23T00:29:53.347Z,7.00
2018-05-23T00:32:21.658Z,6.50
2018-05-23T00:34:50.009Z,7.30
2018-05-23T00:37:18.336Z,5.67
2018-05-23T00:39:47.442Z,6.87
2018-05-23T00:42:16.528Z,6.83
2018-05-23T00:44:44.872Z,6.07
2018-05-23T00:47:13.187Z,7.17
2018-05-23T00:49:42.271Z,7.10
2018-05-23T00:52:10.596Z,6.10
2018-05-23T00:54:38.903Z,6.83
2018-05-23T00:57:07.268Z,7.03
2018-05-23T00:59:35.581Z,6.43
2018-05-23T01:02:04.684Z,7.10
2018-05-23T01:04:32.994Z,6.50
2018-05-23T01:07:01.328Z,6.83
2018-05-23T01:09:29.647Z,7.00
2018-05-23T01:11:57.980Z,6.87
2018-05-23T01:14:26.291Z,7.27
2018-05-23T01:16:54.688Z,7.20
2018-05-23T01:19:23.009Z,7.50
2018-05-23T01:21:51.352Z,6.93
2018-05-23T01:24:19.681Z,7.97
2018-05-23T01:26:48.017Z,7.73
2018-05-23T01:29:16.329Z,6.67
2018-05-23T01:31:44.787Z,7.07
2018-05-23T01:34:13.257Z,6.90
2018-05-23T01:36:41.598Z,6.97
2018-05-23T01:39:10.672Z,7.33
2018-05-23T01:41:38.989Z,6.80
2018-05-23T01:44:07.327Z,6.63
2018-05-23T01:46:35.649Z,5.93
2018-05-23T01:49:15.870Z,7.60
2018-05-23T01:51:44.976Z,6.87
2018-05-23T01:54:14.081Z,6.60
2018-05-23T01:56:42.392Z,7.13
2018-05-23T01:59:10.724Z,6.90
2018-05-23T02:01:39.806Z,7.57
2018-05-23T02:04:08.140Z,7.37
2018-05-23T02:06:36.458Z,6.87
2018-05-23T02:09:06.520Z,7.57
2018-05-23T02:11:34.864Z,7.40
2018-05-23T02:14:03.976Z,6.73
2018-05-23T02:16:33.054Z,6.77
2018-05-23T02:19:02.163Z,8.17
2018-05-23T02:21:31.234Z,7.10
2018-05-23T02:23:59.568Z,7.00
2018-05-23T02:26:27.890Z,7.27
2018-05-23T02:28:56.225Z,6.50
2018-05-23T02:31:24.533Z,6.70
2018-05-23T02:33:52.908Z,6.30
2018-05-23T02:36:21.235Z,6.30
2018-05-23T02:38:49.579Z,7.10
2018-05-23T02:41:18.668Z,6.50
2018-05-23T02:43:47.028Z,7.33
2018-05-23T02:46:20.273Z,7.17
2018-05-23T02:48:49.360Z,6.57
2018-05-23T02:51:18.436Z,8.00
2018-05-23T02:53:46.895Z,6.80
2018-05-23T02:56:15.225Z,6.90
2018-05-23T02:58:44.303Z,8.57
2018-05-23T03:01:13.404Z,7.53
2018-05-23T03:03:42.483Z,6.50
2018-05-23T03:06:10.870Z,8.00
2018-05-23T03:08:39.222Z,7.23
2018-05-23T03:11:07.554Z,6.50
2018-05-23T03:13:35.880Z,6.90
2018-05-23T03:16:04.266Z,7.73
2018-05-23T03:18:33.370Z,7.50
2018-05-23T03:21:01.783Z,7.90
2018-05-23T03:23:30.122Z,6.93
2018-05-23T03:25:58.487Z,7.60
2018-05-23T03:28:26.794Z,7.43
2018-05-23T03:30:55.136Z,7.13
2018-05-23T03:33:23.451Z,6.80
2018-05-23T03:35:52.588Z,8.13
2018-05-23T03:38:20.913Z,7.37
2018-05-23T03:40:49.251Z,7.80
2018-05-23T03:43:17.592Z,8.10
2018-05-23T03:45:47.707Z,8.13
2018-05-23T03:48:16.813Z,7.87
2018-05-23T03:50:45.255Z,8.07
2018-05-23T03:53:13.569Z,7.10
2018-05-23T03:55:42.689Z,7.60
2018-05-23T03:58:11.051Z,7.33
2018-05-23T04:00:51.312Z,7.67
2018-05-23T04:03:31.492Z,8.07
2018-05-23T04:06:11.729Z,8.10
2018-05-23T04:08:40.038Z,8.00
2018-05-23T04:11:08.386Z,8.87
2018-05-23T04:13:36.715Z,9.00
2018-05-23T04:16:05.028Z,7.80
2018-05-23T04:18:33.399Z,9.00
2018-05-23T04:21:02.487Z,8.10
2018-05-23T04:23:31.590Z,8.63
2018-05-23T04:26:00.677Z,8.30
2018-05-23T04:28:29.794Z,7.83
2018-05-23T04:30:58.204Z,7.70
2018-05-23T04:33:26.563Z,9.20
2018-05-23T04:35:54.895Z,7.80
2018-05-23T04:38:23.222Z,8.50
2018-05-23T04:40:51.568Z,7.67
2018-05-23T04:43:19.919Z,8.80
2018-05-23T04:45:48.270Z,8.77
2018-05-23T04:48:16.615Z,7.50
2018-05-23T04:50:45.685Z,8.50
2018-05-23T04:53:14.055Z,8.13
2018-05-23T04:55:42.383Z,7.93
2018-05-23T04:58:10.744Z,8.60
2018-05-23T05:00:39.826Z,8.33
2018-05-23T05:03:08.962Z,8.83
2018-05-23T05:05:37.340Z,9.00
2018-05-23T05:08:05.699Z,7.73
2018-05-23T05:10:34.039Z,8.30
2018-05-23T05:13:03.909Z,7.93
2018-05-23T05:15:32.270Z,7.80
2018-05-23T05:18:01.390Z,8.47
2018-05-23T05:20:29.754Z,8.60
2018-05-23T05:22:58.090Z,8.47
2018-05-23T05:25:26.432Z,8.27
2018-05-23T05:27:54.758Z,8.50
2018-05-23T05:30:23.167Z,8.80
2018-05-23T05:32:51.500Z,8.00
2018-05-23T05:35:19.833Z,8.70
2018-05-23T05:37:48.183Z,8.47
2018-05-23T05:40:17.291Z,7.93
2018-05-23T05:42:45.621Z,7.90
2018-05-23T05:45:14.132Z,8.03
2018-05-23T05:47:42.484Z,9.10
2018-05-23T05:50:10.844Z,8.60
2018-05-23T05:52:39.200Z,9.00
2018-05-23T05:55:07.546Z,8.43
2018-05-23T05:57:36.641Z,7.73
2018-05-23T06:00:05.798Z,7.70
2018-05-23T06:02:34.119Z,7.97
2018-05-23T06:05:03.244Z,7.57
2018-05-23T06:07:31.594Z,7.80
2018-05-23T06:10:00.854Z,8.57
2018-05-23T06:12:29.247Z,8.57
2018-05-23T06:14:57.584Z,8.17
2018-05-23T06:17:25.926Z,7.83
2018-05-23T06:19:55.035Z,9.10
2018-05-23T06:25:34.800Z,7.97
2018-05-23T06:28:03.901Z,7.17
2018-05-23T06:30:32.994Z,7.73
2018-05-23T06:33:02.132Z,7.53
2018-05-23T06:35:30.443Z,7.23
2018-05-23T06:37:58.835Z,7.10
2018-05-23T06:40:27.939Z,6.87
2018-05-23T06:42:57.064Z,6.70
2018-05-23T06:45:25.407Z,5.97
2018-05-23T06:47:54.517Z,6.70
2018-05-23T06:50:23.578Z,7.00
2018-05-23T06:52:51.923Z,6.87
2018-05-23T06:55:20.265Z,6.67
2018-05-23T06:57:48.604Z,5.87
2018-05-23T07:00:16.931Z,5.73
2018-05-23T07:02:45.327Z,5.63
2018-05-23T07:05:13.736Z,6.27
2018-05-23T07:07:42.088Z,6.27
2018-05-23T07:10:10.406Z,5.83
2018-05-23T07:12:38.752Z,4.93
2018-05-23T07:15:07.062Z,5.63
2018-05-23T07:17:35.422Z,4.43
2018-05-23T07:20:03.738Z,5.37
2018-05-23T07:22:32.819Z,5.37
2018-05-23T07:25:01.173Z,5.00
2018-05-23T07:27:30.297Z,4.97
2018-05-23T07:29:58.633Z,5.33
2018-05-23T07:32:26.937Z,6.23
2018-05-23T07:34:55.295Z,5.27
2018-05-23T07:37:23.611Z,6.30
2018-05-23T07:39:51.960Z,6.43
2018-05-23T07:42:20.273Z,6.70
2018-05-23T07:44:49.411Z,5.50
2018-05-23T07:47:17.737Z,5.83
2018-05-23T07:49:46.091Z,5.83
2018-05-23T07:52:15.189Z,6.13
2018-05-23T07:54:43.553Z,4.63
2018-05-23T07:57:11.880Z,6.03
2018-05-23T07:59:40.996Z,4.70
2018-05-23T08:02:10.079Z,4.93
2018-05-23T08:04:39.265Z,4.90
2018-05-23T08:07:07.593Z,5.30
2018-05-23T08:09:35.938Z,4.93
2018-05-23T08:12:05.109Z,4.87
2018-05-23T08:14:33.438Z,5.80
2018-05-23T08:17:01.836Z,4.57
2018-05-23T08:19:30.215Z,5.87
2018-05-23T08:21:58.525Z,5.20
2018-05-23T08:24:27.727Z,5.10
2018-05-23T08:26:56.010Z,4.50
2018-05-23T08:29:24.342Z,5.10
2018-05-23T08:31:52.697Z,5.57
2018-05-23T08:34:21.014Z,5.17
2018-05-23T08:36:49.350Z,4.70
2018-05-23T08:39:17.678Z,4.67
2018-05-23T08:41:46.029Z,5.20
2018-05-23T08:44:14.377Z,5.87
2018-05-23T08:46:42.717Z,5.40
2018-05-23T08:49:11.036Z,4.80
2018-05-23T08:51:39.422Z,4.97
2018-05-23T08:54:07.739Z,5.00
2018-05-23T08:56:36.063Z,4.53
2018-05-23T08:59:05.143Z,4.70
2018-05-23T09:01:34.240Z,5.27
2018-05-23T09:04:03.324Z,4.33
2018-05-23T09:06:31.688Z,5.50
2018-05-23T09:09:00.136Z,5.07
2018-05-23T09:11:28.463Z,4.60
2018-05-23T09:13:56.774Z,5.33
2018-05-23T09:16:25.106Z,5.07
2018-05-23T09:18:53.457Z,4.73
2018-05-23T09:21:21.845Z,5.00
2018-05-23T09:23:50.190Z,4.80
2018-05-23T09:26:18.519Z,4.60
2018-05-23T09:28:46.845Z,4.33
2018-05-23T09:31:15.158Z,4.37
2018-05-23T09:33:43.675Z,5.13
2018-05-23T09:36:11.997Z,4.13
2018-05-23T09:38:40.320Z,3.93
2018-05-23T09:41:08.635Z,4.13
2018-05-23T09:43:36.968Z,4.50
2018-05-23T09:46:05.284Z,4.20
2018-05-23T09:48:34.384Z,3.53
2018-05-23T09:51:02.715Z,4.50
2018-05-23T09:53:31.058Z,4.30
2018-05-23T09:55:59.386Z,4.40
2018-05-23T09:58:27.730Z,4.30
2018-05-23T10:00:56.036Z,4.80
2018-05-23T10:03:24.392Z,4.40
2018-05-23T10:05:52.710Z,4.27
2018-05-23T10:08:21.824Z,4.53
2018-05-23T10:10:50.162Z,3.70
2018-05-23T10:13:18.506Z,4.30
2018-05-23T10:15:46.828Z,4.93
2018-05-23T10:18:15.167Z,4.50
2018-05-23T10:20:43.498Z,4.03
2018-05-23T10:23:12.617Z,4.77
2018-05-23T10:25:40.953Z,4.40
2018-05-23T10:28:09.308Z,4.33
2018-05-23T10:30:37.751Z,5.47
2018-05-23T10:33:06.389Z,4.40
2018-05-23T10:35:35.523Z,4.43
2018-05-23T10:38:03.935Z,4.30
2018-05-23T10:40:32.349Z,4.73
2018-05-23T10:43:00.677Z,4.67
2018-05-23T10:45:29.874Z,4.70
2018-05-23T10:47:58.211Z,5.03
2018-05-23T10:50:26.552Z,4.30
2018-05-23T10:52:54.871Z,4.30
2018-05-23T10:55:23.213Z,4.87
2018-05-23T10:57:51.560Z,4.90
2018-05-23T11:00:19.907Z,4.40
2018-05-23T11:02:49.001Z,4.50
2018-05-23T11:05:18.155Z,5.10
2018-05-23T11:07:46.493Z,5.30
2018-05-23T11:10:14.896Z,4.80
2018-05-23T11:12:43.416Z,5.37
2018-05-23T11:15:11.857Z,5.57
2018-05-23T11:17:40.117Z,5.40
2018-05-23T11:20:09.235Z,5.33
2018-05-23T11:22:37.558Z,5.17
2018-05-23T11:25:05.859Z,5.30
2018-05-23T11:27:34.956Z,5.73
2018-05-23T11:30:04.083Z,5.37
2018-05-23T11:32:32.424Z,5.60
2018-05-23T11:35:01.521Z,5.20
2018-05-23T11:37:30.632Z,5.27
2018-05-23T11:39:59.068Z,6.17
2018-05-23T11:42:27.419Z,5.37
2018-05-23T11:44:56.570Z,5.50
2018-05-23T11:47:24.890Z,5.40
2018-05-23T11:49:53.204Z,4.70
2018-05-23T11:52:21.551Z,4.70
2018-05-23T11:54:49.868Z,5.00
2018-05-23T11:57:18.995Z,5.13
2018-05-23T11:59:48.081Z,4.83
2018-05-23T12:02:17.163Z,5.30
2018-05-23T12:04:45.493Z,4.70
2018-05-23T12:07:13.860Z,4.80
2018-05-23T12:09:42.220Z,5.53
2018-05-23T12:12:11.355Z,5.23
2018-05-23T12:14:39.667Z,5.47
2018-05-23T12:17:08.031Z,5.67
2018-05-23T12:19:36.417Z,5.20
2018-05-23T12:22:04.733Z,4.37
2018-05-23T12:24:33.065Z,4.93
2018-05-23T12:27:01.436Z,4.80
2018-05-23T12:29:29.756Z,5.00
2018-05-23T12:31:58.312Z,5.30
2018-05-23T12:34:26.630Z,5.27
2018-05-23T12:36:54.969Z,5.10
2018-05-23T12:39:23.306Z,4.83
2018-05-23T12:41:51.624Z,5.00
2018-05-23T12:44:19.969Z,4.73
2018-05-23T12:46:48.299Z,4.87
2018-05-23T12:49:17.392Z,4.77
2018-05-23T12:51:46.479Z,3.67
2018-05-23T12:54:14.845Z,4.40
2018-05-23T12:56:43.160Z,3.70
2018-05-23T12:59:12.283Z,4.10
2018-05-23T13:01:40.605Z,4.90
2018-05-23T13:04:08.960Z,4.17
2018-05-23T13:06:37.305Z,4.80
2018-05-23T13:09:05.668Z,5.80
2018-05-23T13:11:34.017Z,4.80
2018-05-23T13:14:02.386Z,3.07
2018-05-23T13:16:30.719Z,3.53
2018-05-23T13:18:59.072Z,3.00
2018-05-23T13:21:28.170Z,2.47
2018-05-23T13:23:56.545Z,2.00
2018-05-23T13:26:25.627Z,2.50
2018-05-23T13:28:53.982Z,2.20
2018-05-23T13:31:22.305Z,2.63
2018-05-23T13:33:50.678Z,2.50
2018-05-23T13:36:19.811Z,1.93
2018-05-23T13:38:48.200Z,2.30
2018-05-23T13:41:16.833Z,3.63
2018-05-23T13:43:45.934Z,3.20
2018-05-23T13:46:15.041Z,2.77
2018-05-23T13:48:44.106Z,2.17
2018-05-23T13:51:12.450Z,3.00
2018-05-23T13:53:40.797Z,2.60
2018-05-23T13:56:09.163Z,3.10
2018-05-23T13:58:38.263Z,2.77
2018-05-23T14:01:07.365Z,2.90
2018-05-23T14:03:35.706Z,3.57
2018-05-23T14:06:04.087Z,3.43
2018-05-23T14:08:32.400Z,3.43
2018-05-23T14:11:01.491Z,2.57
2018-05-23T14:13:30.576Z,3.27
2018-05-23T14:15:59.698Z,2.93
2018-05-23T14:18:28.029Z,3.63
2018-05-23T14:20:56.402Z,3.10
2018-05-23T14:23:24.735Z,3.97
2018-05-23T14:25:53.106Z,3.23
2018-05-23T14:28:21.445Z,2.20
2018-05-23T14:30:49.768Z,2.37
2018-05-23T14:33:18.112Z,2.40
2018-05-23T14:35:46.453Z,1.70
2018-05-23T14:38:14.801Z,2.13
2018-05-23T14:40:43.296Z,2.47
2018-05-23T14:43:11.654Z,1.93
2018-05-23T14:45:39.987Z,2.00
2018-05-23T14:48:15.474Z,2.63
2018-05-23T14:50:43.879Z,2.13
2018-05-23T14:53:12.211Z,2.47
2018-05-23T14:55:40.518Z,2.77
2018-05-23T14:58:08.867Z,2.33
2018-05-23T15:00:38.223Z,2.20
2018-05-23T15:03:06.596Z,2.53
2018-05-23T15:05:34.919Z,2.53
2018-05-23T15:08:04.056Z,2.00
2018-05-23T15:10:32.425Z,1.73
2018-05-23T15:13:00.758Z,1.73
2018-05-23T15:15:29.217Z,1.63
2018-05-23T15:17:57.598Z,1.67
2018-05-23T15:20:26.822Z,1.30
2018-05-23T15:22:55.160Z,1.30
2018-05-23T15:25:23.483Z,1.40
2018-05-23T15:27:51.812Z,2.07
2018-05-23T15:30:20.160Z,1.97
2018-05-23T15:32:49.246Z,2.90
2018-05-23T15:35:18.392Z,1.73
2018-05-23T15:37:46.727Z,1.57
2018-05-23T15:40:15.821Z,2.10
2018-05-23T15:42:44.303Z,2.20
2018-05-23T15:45:13.433Z,1.93
2018-05-23T15:47:41.755Z,2.43
2018-05-23T15:50:10.081Z,2.80
2018-05-23T15:52:39.218Z,2.63
2018-05-23T15:55:07.556Z,2.70
2018-05-23T15:57:35.876Z,3.23
2018-05-23T16:00:04.230Z,3.00
2018-05-23T16:02:32.563Z,3.20
2018-05-23T16:05:00.912Z,3.27
2018-05-23T16:07:29.234Z,3.50
2018-05-23T16:09:58.345Z,4.47
2018-05-23T16:12:26.662Z,4.80
2018-05-23T16:14:55.025Z,4.73
2018-05-23T16:17:23.340Z,3.97
2018-05-23T16:19:51.695Z,4.37
2018-05-23T16:22:20.012Z,3.47
2018-05-23T16:24:49.108Z,3.93
2018-05-23T16:27:17.423Z,3.90
2018-05-23T16:29:45.756Z,4.10
2018-05-23T16:32:14.240Z,4.10
2018-05-23T16:34:43.375Z,4.50
2018-05-23T16:37:11.705Z,5.33
2018-05-23T16:39:40.092Z,5.13
2018-05-23T16:42:08.416Z,5.50
2018-05-23T16:44:36.753Z,6.00
2018-05-23T16:47:05.859Z,5.97
2018-05-23T16:49:34.988Z,6.10
2018-05-23T16:52:03.379Z,6.10
2018-05-23T16:54:31.660Z,6.37
2018-05-23T16:57:00.014Z,7.23
2018-05-23T16:59:28.337Z,6.20
2018-05-23T17:01:56.688Z,7.00
2018-05-23T17:04:25.111Z,7.13
2018-05-23T17:06:53.393Z,7.33
2018-05-23T17:09:22.589Z,7.37
2018-05-23T17:11:51.701Z,7.60
2018-05-23T17:14:20.049Z,7.53
2018-05-23T17:16:48.370Z,7.37
2018-05-23T17:19:16.699Z,7.10
2018-05-23T17:21:45.033Z,7.50
2018-05-23T17:24:13.375Z,7.90
2018-05-23T17:26:42.491Z,9.37
2018-05-23T17:29:10.813Z,9.87
2018-05-23T17:31:39.173Z,8.83
2018-05-23T17:34:07.486Z,9.10
2018-05-23T17:36:35.819Z,7.70
2018-05-23T17:39:04.159Z,7.60
2018-05-23T17:41:33.296Z,7.53
2018-05-23T17:44:01.634Z,8.03
2018-05-23T17:46:30.816Z,7.20
2018-05-23T17:48:59.147Z,8.73
2018-05-23T17:51:27.518Z,8.00
2018-05-23T17:53:55.849Z,8.10
2018-05-23T17:56:24.226Z,7.60
2018-05-23T17:58:52.549Z,8.23
2018-05-23T18:01:20.892Z,8.43
2018-05-23T18:03:49.234Z,7.17
2018-05-23T18:06:17.598Z,7.13
2018-05-23T18:08:45.983Z,7.27
2018-05-23T18:11:14.378Z,6.90
2018-05-23T18:13:43.439Z,7.33
2018-05-23T18:16:11.776Z,6.17
2018-05-23T18:18:40.115Z,6.20
2018-05-23T18:21:08.468Z,6.40
2018-05-23T18:23:36.942Z,7.10
2018-05-23T18:26:05.190Z,6.60
2018-05-23T18:28:33.577Z,6.17
2018-05-23T18:31:01.901Z,6.57
2018-05-23T18:33:30.375Z,7.43
2018-05-23T18:35:58.906Z,6.33
2018-05-23T18:38:27.244Z,5.60
2018-05-23T18:40:55.571Z,6.77
2018-05-23T18:43:23.964Z,7.30
2018-05-23T18:45:52.257Z,7.33
2018-05-23T18:48:20.612Z,7.33
2018-05-23T18:50:48.957Z,7.07
2018-05-23T18:53:17.325Z,7.50
2018-05-23T18:55:45.649Z,6.70
2018-05-23T18:58:14.759Z,6.90
2018-05-23T19:00:43.296Z,6.97
2018-05-23T19:03:12.408Z,7.37
2018-05-23T19:05:40.835Z,7.97
2018-05-23T19:08:09.228Z,8.57
2018-05-23T19:10:37.549Z,8.10
2018-05-23T19:13:05.887Z,7.50
2018-05-23T19:15:35.027Z,7.70
2018-05-23T19:18:03.377Z,7.17
2018-05-23T19:20:31.764Z,6.37
2018-05-23T19:23:01.612Z,7.67
2018-05-23T19:25:30.736Z,7.80
2018-05-23T19:27:59.075Z,7.47
2018-05-23T19:30:27.431Z,8.07
2018-05-23T19:32:55.755Z,7.43
2018-05-23T19:35:24.091Z,7.00
2018-05-23T19:37:53.226Z,7.57
2018-05-23T19:40:21.597Z,7.10
2018-05-23T19:42:50.705Z,7.77
2018-05-23T19:45:19.038Z,7.60
2018-05-23T19:47:47.355Z,8.30
2018-05-23T19:50:15.699Z,17.30
2018-05-23T19:52:44.064Z,11.93
2018-05-23T19:55:14.505Z,12.20
2018-05-23T19:57:43.675Z,11.47
2018-05-23T20:00:12.032Z,16.00
2018-05-23T20:02:40.357Z,19.37
2018-05-23T20:05:08.698Z,19.67
2018-05-23T20:07:37.022Z,15.13
2018-05-23T20:10:05.374Z,14.60
2018-05-23T20:12:33.693Z,14.37
2018-05-23T20:15:02.057Z,11.57
2018-05-23T20:17:30.383Z,17.30
2018-05-23T20:19:58.700Z,10.90
2018-05-23T20:22:27.045Z,13.70
2018-05-23T20:24:55.362Z,13.07
2018-05-23T20:27:23.705Z,12.40
2018-05-23T20:29:52.043Z,10.93
2018-05-23T20:32:21.157Z,12.17
2018-05-23T20:34:49.484Z,12.10
2018-05-23T20:37:17.818Z,10.00
2018-05-23T20:39:46.155Z,9.17
2018-05-23T20:42:14.477Z,8.80
2018-05-23T20:44:42.805Z,8.23
2018-05-23T20:47:11.135Z,8.00
2018-05-23T20:49:39.464Z,8.50
2018-05-23T20:52:07.797Z,8.13
2018-05-23T20:54:36.103Z,8.50
2018-05-23T20:57:04.431Z,8.10
2018-05-23T20:59:32.737Z,8.90
2018-05-23T21:02:01.067Z,8.53
2018-05-23T21:04:30.172Z,8.60
2018-05-23T21:06:59.275Z,9.00
2018-05-23T21:09:28.399Z,8.30
2018-05-23T21:11:56.768Z,10.07
2018-05-23T21:14:25.096Z,10.80
2018-05-23T21:16:53.436Z,10.03
2018-05-23T21:19:21.755Z,10.60
2018-05-23T21:21:50.093Z,9.40
2018-05-23T21:24:18.410Z,9.50
2018-05-23T21:26:46.724Z,8.40
2018-05-23T21:29:15.058Z,9.33
2018-05-23T21:31:43.376Z,10.13
2018-05-23T21:34:11.711Z,9.47
2018-05-23T21:36:40.025Z,9.30
2018-05-23T21:39:09.125Z,9.13
2018-05-23T21:41:37.466Z,9.10
2018-05-23T21:44:05.800Z,9.23
2018-05-23T21:46:40.323Z,8.50
2018-05-23T21:49:08.599Z,7.97
2018-05-23T21:51:36.916Z,8.90
2018-05-23T21:54:05.259Z,8.90
2018-05-23T21:56:33.560Z,9.80
2018-05-23T21:59:01.896Z,9.20
2018-05-23T22:01:30.255Z,8.97
2018-05-23T22:03:59.347Z,9.63
2018-05-23T22:06:28.427Z,9.90
2018-05-23T22:08:57.553Z,8.67
2018-05-23T22:11:25.886Z,9.63
2018-05-23T22:13:54.216Z,8.20
2018-05-23T22:16:22.527Z,8.70
2018-05-23T22:18:50.893Z,8.17
2018-05-23T22:21:19.209Z,8.40
2018-05-23T22:23:47.561Z,8.90
2018-05-23T22:26:15.951Z,8.57
2018-05-23T22:28:44.993Z,8.50
2018-05-23T22:31:14.176Z,8.43
2018-05-23T22:33:43.306Z,8.60
2018-05-23T22:36:11.615Z,9.30
2018-05-23T22:38:39.954Z,8.63
2018-05-23T22:41:08.262Z,8.50
2018-05-23T22:43:36.594Z,8.40
2018-05-23T22:46:05.663Z,8.80
2018-05-23T22:48:33.969Z,8.70
2018-05-23T22:51:03.066Z,8.63
2018-05-23T22:53:31.393Z,9.60
2018-05-23T22:55:59.729Z,9.47
2018-05-23T22:58:28.041Z,8.67
2018-05-23T23:00:56.392Z,10.27
2018-05-23T23:03:24.707Z,10.00
2018-05-23T23:05:53.031Z,9.97
2018-05-23T23:08:21.364Z,10.10
2018-05-23T23:10:49.811Z,8.83
2018-05-23T23:13:18.893Z,8.70
2018-05-23T23:15:47.226Z,8.93
2018-05-23T23:18:15.547Z,8.50
2018-05-23T23:20:44.647Z,9.20
2018-05-23T23:23:12.963Z,8.90
2018-05-23T23:25:41.292Z,8.00
2018-05-23T23:28:10.380Z,8.47
2018-05-23T23:30:39.501Z,8.33
2018-05-23T23:33:07.802Z,9.10
2018-05-23T23:35:36.145Z,8.40
2018-05-23T23:38:04.446Z,8.43
2018-05-23T23:40:32.781Z,9.00
2018-05-23T23:43:01.874Z,8.60
2018-05-23T23:45:30.291Z,8.63
2018-05-23T23:47:58.613Z,9.00
2018-05-23T23:50:26.934Z,9.60
2018-05-23T23:52:55.276Z,9.27
2018-05-23T23:55:23.591Z,8.40
2018-05-23T23:57:51.920Z,9.50
